createdAt,value
2023-03-27T00:00:50.929Z,4.10
2023-03-27T00:03:53.803Z,3.65
2023-03-27T00:06:56.381Z,3.87
2023-03-27T00:10:02.125Z,4.22
2023-03-27T00:13:06.800Z,6.45
2023-03-27T00:16:09.951Z,3.72
2023-03-27T00:19:12.512Z,3.70
2023-03-27T00:22:15.770Z,3.20
2023-03-27T00:25:18.725Z,3.17
2023-03-27T00:28:21.804Z,3.72
2023-03-27T00:31:24.210Z,4.53
2023-03-27T00:34:27.233Z,3.85
2023-03-27T00:37:29.583Z,3.73
2023-03-27T00:40:32.794Z,3.53
2023-03-27T00:43:36.483Z,5.90
2023-03-27T00:46:44.894Z,5.15
2023-03-27T00:49:49.627Z,6.10
2023-03-27T00:52:57.065Z,4.93
2023-03-27T00:56:03.191Z,5.72
2023-03-27T00:59:15.604Z,4.95
2023-03-27T01:02:18.932Z,6.55
2023-03-27T01:05:22.237Z,5.43
2023-03-27T01:08:27.284Z,5.00
2023-03-27T01:11:43.575Z,4.28
2023-03-27T01:15:10.850Z,4.82
2023-03-27T01:18:33.117Z,5.00
2023-03-27T01:21:41.480Z,4.65
2023-03-27T01:25:22.026Z,5.17
2023-03-27T01:28:54.865Z,5.07
2023-03-27T01:32:11.162Z,4.68
2023-03-27T01:35:27.847Z,4.00
2023-03-27T01:39:06.708Z,4.97
2023-03-27T01:42:22.634Z,4.57
2023-03-27T01:45:34.649Z,5.22
2023-03-27T01:48:43.430Z,6.05
2023-03-27T01:51:54.171Z,4.03
2023-03-27T01:55:05.234Z,5.70
2023-03-27T01:58:15.946Z,6.23
2023-03-27T02:01:27.327Z,4.37
2023-03-27T02:04:46.977Z,4.87
2023-03-27T02:08:05.091Z,4.93
2023-03-27T02:11:09.192Z,7.10
2023-03-27T02:14:17.395Z,6.53
2023-03-27T02:17:22.029Z,5.82
2023-03-27T02:20:24.523Z,4.93
2023-03-27T02:23:27.170Z,5.97
2023-03-27T02:26:30.469Z,4.90
2023-03-27T02:30:08.453Z,6.97
2023-03-27T02:33:50.163Z,6.12
2023-03-27T02:37:42.318Z,5.32
2023-03-27T02:41:27.233Z,4.50
2023-03-27T02:44:53.625Z,4.20
2023-03-27T02:48:08.260Z,4.63
2023-03-27T02:51:26.639Z,4.47
2023-03-27T02:54:36.449Z,4.30
2023-03-27T02:57:39.285Z,5.82
2023-03-27T03:00:49.091Z,7.32
2023-03-27T03:04:00.050Z,4.90
2023-03-27T03:07:06.575Z,4.68
2023-03-27T03:10:11.747Z,4.55
2023-03-27T03:13:15.945Z,4.10
2023-03-27T03:16:18.382Z,4.90
2023-03-27T03:19:21.843Z,3.50
2023-03-27T03:22:24.349Z,6.70
2023-03-27T03:25:27.907Z,4.55
2023-03-27T03:28:30.399Z,5.10
2023-03-27T03:31:43.429Z,5.35
2023-03-27T03:34:49.272Z,5.63
2023-03-27T03:37:55.252Z,5.68
2023-03-27T03:40:59.271Z,5.03
2023-03-27T03:44:02.243Z,8.00
2023-03-27T03:47:04.857Z,5.70
2023-03-27T03:50:08.007Z,6.90
2023-03-27T03:53:11.104Z,7.15
2023-03-27T03:56:14.037Z,5.80
2023-03-27T03:59:16.467Z,5.40
2023-03-27T04:02:31.532Z,5.00
2023-03-27T04:05:36.272Z,5.43
2023-03-27T04:08:39.468Z,5.72
2023-03-27T04:11:42.707Z,5.47
2023-03-27T04:14:45.818Z,7.57
2023-03-27T04:17:50.905Z,7.25
2023-03-27T04:20:54.380Z,5.80
2023-03-27T04:24:03.002Z,8.27
2023-03-27T04:27:06.070Z,7.37
2023-03-27T04:30:14.295Z,6.55
2023-03-27T04:33:19.836Z,5.25
2023-03-27T04:36:25.777Z,5.60
2023-03-27T04:39:29.311Z,7.03
2023-03-27T04:42:32.272Z,7.12
2023-03-27T04:45:34.940Z,6.18
2023-03-27T04:48:40.305Z,9.07
2023-03-27T04:51:46.921Z,5.97
2023-03-27T04:54:49.868Z,6.57
2023-03-27T04:57:53.777Z,7.37
2023-03-27T05:00:57.636Z,6.25
2023-03-27T05:04:05.088Z,6.80
2023-03-27T05:07:10.234Z,6.80
2023-03-27T05:10:13.040Z,8.25
2023-03-27T05:13:15.962Z,7.62
2023-03-27T05:16:18.614Z,5.45
2023-03-27T05:19:22.729Z,11.10
2023-03-27T05:22:27.348Z,7.43
2023-03-27T05:25:32.766Z,8.20
2023-03-27T05:28:36.036Z,8.90
2023-03-27T05:31:40.232Z,6.68
2023-03-27T05:34:45.953Z,6.57
2023-03-27T05:37:52.666Z,7.53
2023-03-27T05:40:56.361Z,8.68
2023-03-27T05:43:59.772Z,7.05
2023-03-27T05:47:10.121Z,6.65
2023-03-27T05:50:14.415Z,7.53
2023-03-27T05:53:17.025Z,6.40
2023-03-27T05:56:21.125Z,8.13
2023-03-27T05:59:24.328Z,7.68
2023-03-27T06:02:27.860Z,6.97
2023-03-27T06:05:32.747Z,8.23
2023-03-27T06:08:36.931Z,7.33
2023-03-27T06:11:43.319Z,7.90
2023-03-27T06:14:46.712Z,6.30
2023-03-27T06:17:49.893Z,5.25
2023-03-27T06:20:52.871Z,4.82
2023-03-27T06:23:56.407Z,7.20
2023-03-27T06:26:58.874Z,5.70
2023-03-27T06:30:04.666Z,5.12
2023-03-27T06:33:08.519Z,6.03
2023-03-27T06:36:12.394Z,5.70
2023-03-27T06:39:15.305Z,4.90
2023-03-27T06:42:21.359Z,4.57
2023-03-27T06:45:27.385Z,3.70
2023-03-27T06:48:34.516Z,4.22
2023-03-27T06:51:37.912Z,4.55
2023-03-27T06:54:41.310Z,3.97
2023-03-27T06:57:45.068Z,5.53
2023-03-27T07:00:50.427Z,5.78
2023-03-27T07:03:59.664Z,4.35
2023-03-27T07:07:03.807Z,4.03
2023-03-27T07:10:07.989Z,4.77
2023-03-27T07:13:11.490Z,3.75
2023-03-27T07:16:14.126Z,5.60
2023-03-27T07:19:17.594Z,4.20
2023-03-27T07:22:20.309Z,4.68
2023-03-27T07:25:24.502Z,4.83
2023-03-27T07:28:27.334Z,6.57
2023-03-27T07:31:51.097Z,4.32
2023-03-27T07:34:53.417Z,3.55
2023-03-27T07:37:58.422Z,3.55
2023-03-27T07:41:06.873Z,7.87
2023-03-27T07:44:12.107Z,4.22
2023-03-27T07:47:15.263Z,4.10
2023-03-27T07:50:21.828Z,4.20
2023-03-27T07:53:33.844Z,4.40
2023-03-27T07:56:41.002Z,5.70
2023-03-27T07:59:45.418Z,6.10
2023-03-27T08:02:52.326Z,5.20
2023-03-27T08:05:57.734Z,5.90
2023-03-27T08:09:02.742Z,4.15
2023-03-27T08:12:08.135Z,6.53
2023-03-27T08:15:13.416Z,5.12
2023-03-27T08:18:16.274Z,4.32
2023-03-27T08:21:19.030Z,4.50
2023-03-27T08:24:24.695Z,5.97
2023-03-27T08:27:28.874Z,5.57
2023-03-27T08:30:31.893Z,5.95
2023-03-27T08:33:34.479Z,6.45
2023-03-27T08:36:38.340Z,6.30
2023-03-27T08:39:41.916Z,6.00
2023-03-27T08:42:48.804Z,6.87
2023-03-27T08:46:25.785Z,5.60
2023-03-27T08:49:38.495Z,5.50
2023-03-27T08:52:43.755Z,6.30
2023-03-27T08:55:51.410Z,4.82
2023-03-27T08:58:54.803Z,6.37
2023-03-27T09:02:07.031Z,6.18
2023-03-27T09:05:30.610Z,11.45
2023-03-27T09:08:42.277Z,6.50
2023-03-27T09:11:53.598Z,4.90
2023-03-27T09:15:13.949Z,14.33
2023-03-27T09:18:23.597Z,8.25
2023-03-27T09:21:32.818Z,12.57
2023-03-27T09:24:43.268Z,6.40
2023-03-27T09:27:49.768Z,4.90
2023-03-27T09:30:53.273Z,4.80
2023-03-27T09:34:00.812Z,5.87
2023-03-27T09:37:05.440Z,4.37
2023-03-27T09:40:21.663Z,4.37
2023-03-27T09:43:36.415Z,4.93
2023-03-27T09:46:46.287Z,6.43
2023-03-27T09:49:56.678Z,5.65
2023-03-27T09:53:14.822Z,6.15
2023-03-27T09:56:17.809Z,5.47
2023-03-27T09:59:25.497Z,5.10
2023-03-27T10:02:30.525Z,5.67
2023-03-27T10:05:34.592Z,5.72
2023-03-27T10:08:46.394Z,4.87
2023-03-27T10:11:59.332Z,5.35
2023-03-27T10:15:06.942Z,6.97
2023-03-27T10:18:27.197Z,5.83
2023-03-27T10:21:38.699Z,4.72
2023-03-27T10:24:44.164Z,5.90
2023-03-27T10:27:48.906Z,6.35
2023-03-27T10:31:05.675Z,5.07
2023-03-27T10:34:43.510Z,5.50
2023-03-27T10:37:50.064Z,6.78
2023-03-27T10:40:56.660Z,3.87
2023-03-27T10:44:12.324Z,5.57
2023-03-27T10:47:18.711Z,3.85
2023-03-27T10:50:53.354Z,3.93
2023-03-27T10:54:05.979Z,4.32
2023-03-27T10:57:17.532Z,5.22
2023-03-27T11:00:43.525Z,4.82
2023-03-27T11:03:50.250Z,3.92
2023-03-27T11:06:59.968Z,5.33
2023-03-27T11:10:45.847Z,5.20
2023-03-27T11:13:49.831Z,4.22
2023-03-27T11:16:58.922Z,3.50
2023-03-27T11:20:08.600Z,5.12
2023-03-27T11:23:20.089Z,4.03
2023-03-27T11:26:38.336Z,4.75
2023-03-27T11:29:53.330Z,4.22
2023-03-27T11:32:57.072Z,3.65
2023-03-27T11:36:22.967Z,4.65
2023-03-27T11:39:42.206Z,2.83
2023-03-27T11:42:46.729Z,3.30
2023-03-27T11:46:26.624Z,2.90
2023-03-27T11:49:45.671Z,4.10
2023-03-27T11:53:12.298Z,3.87
2023-03-27T11:56:58.134Z,3.93
2023-03-27T12:00:11.684Z,5.43
2023-03-27T12:03:28.986Z,5.35
2023-03-27T12:06:44.652Z,4.80
2023-03-27T12:10:04.668Z,7.97
2023-03-27T12:13:46.228Z,9.97
2023-03-27T12:16:59.241Z,13.52
2023-03-27T12:20:22.735Z,16.85
2023-03-27T12:23:37.804Z,14.63
2023-03-27T12:27:16.362Z,14.45
2023-03-27T12:30:37.359Z,13.07
2023-03-27T12:34:08.206Z,12.75
2023-03-27T12:37:13.785Z,10.93
2023-03-27T12:40:28.411Z,8.55
2023-03-27T12:43:39.645Z,8.38
2023-03-27T12:47:24.464Z,8.00
2023-03-27T12:50:32.129Z,7.05
2023-03-27T12:53:35.067Z,6.70
2023-03-27T12:56:42.524Z,6.18
2023-03-27T12:59:48.291Z,5.75
2023-03-27T13:02:59.964Z,7.63
2023-03-27T13:06:22.649Z,4.32
2023-03-27T13:09:42.447Z,4.20
2023-03-27T13:12:56.841Z,4.95
2023-03-27T13:16:34.174Z,4.57
2023-03-27T13:19:58.827Z,4.47
2023-03-27T13:23:10.734Z,4.75
2023-03-27T13:26:47.986Z,6.62
2023-03-27T13:29:52.595Z,4.40
2023-03-27T13:33:17.681Z,3.45
2023-03-27T13:36:23.099Z,4.97
2023-03-27T13:39:40.573Z,4.30
2023-03-27T13:42:47.008Z,4.03
2023-03-27T13:45:55.208Z,6.78
2023-03-27T13:49:37.016Z,3.87
2023-03-27T13:53:05.139Z,4.70
2023-03-27T13:56:28.375Z,7.65
2023-03-27T13:59:54.844Z,3.80
2023-03-27T14:03:32.000Z,4.30
2023-03-27T14:07:03.191Z,5.22
2023-03-27T14:10:43.615Z,4.63
2023-03-27T14:14:07.218Z,4.55
2023-03-27T14:17:25.650Z,5.93
2023-03-27T14:20:34.227Z,7.30
2023-03-27T14:23:47.959Z,7.43
2023-03-27T14:26:53.927Z,5.23
2023-03-27T14:30:09.476Z,5.37
2023-03-27T14:33:20.296Z,5.62
2023-03-27T14:36:28.743Z,5.70
2023-03-27T14:39:37.711Z,5.07
2023-03-27T14:42:46.836Z,6.10
2023-03-27T14:45:52.775Z,4.60
2023-03-27T14:48:59.820Z,4.37
2023-03-27T14:52:06.454Z,4.68
2023-03-27T14:55:18.118Z,4.12
2023-03-27T14:58:24.766Z,4.73
2023-03-27T15:01:32.216Z,5.82
2023-03-27T15:04:35.121Z,4.62
2023-03-27T15:07:42.975Z,5.55
2023-03-27T15:10:52.371Z,4.35
2023-03-27T15:14:01.580Z,4.83
2023-03-27T15:17:07.255Z,5.90
2023-03-27T15:20:14.527Z,5.32
2023-03-27T15:23:23.086Z,5.55
2023-03-27T15:26:31.548Z,4.43
2023-03-27T15:29:44.507Z,5.47
2023-03-27T15:32:52.297Z,6.05
2023-03-27T15:35:57.275Z,5.25
2023-03-27T15:39:01.468Z,5.15
2023-03-27T15:42:07.124Z,4.78
2023-03-27T15:45:10.743Z,3.90
2023-03-27T15:48:16.142Z,4.22
2023-03-27T15:51:18.386Z,6.20
2023-03-27T15:54:34.732Z,4.18
2023-03-27T15:57:37.193Z,5.10
2023-03-27T16:00:47.530Z,4.50
2023-03-27T16:03:51.571Z,4.05
2023-03-27T16:07:06.316Z,4.40
2023-03-27T16:10:10.523Z,6.03
2023-03-27T16:13:26.662Z,5.07
2023-03-27T16:16:33.328Z,4.13
2023-03-27T16:19:43.391Z,4.53
2023-03-27T16:22:46.142Z,6.75
2023-03-27T16:25:48.613Z,3.80
2023-03-27T16:28:51.430Z,4.65
2023-03-27T16:31:53.912Z,5.10
2023-03-27T16:34:56.714Z,3.95
2023-03-27T16:37:59.907Z,4.00
2023-03-27T16:41:02.649Z,6.12
2023-03-27T16:44:05.388Z,4.87
2023-03-27T16:47:08.342Z,5.83
2023-03-27T16:50:18.779Z,5.68
2023-03-27T16:53:21.588Z,4.95
2023-03-27T16:56:24.359Z,4.22
2023-03-27T16:59:28.259Z,5.45
2023-03-27T17:02:33.526Z,4.37
2023-03-27T17:05:40.692Z,4.00
2023-03-27T17:08:43.157Z,4.68
2023-03-27T17:11:46.419Z,4.40
2023-03-27T17:14:48.936Z,5.75
2023-03-27T17:17:53.113Z,5.50
2023-03-27T17:20:55.577Z,3.97
2023-03-27T17:23:59.639Z,4.68
2023-03-27T17:27:02.129Z,4.30
2023-03-27T17:30:05.846Z,3.70
2023-03-27T17:33:08.541Z,4.03
2023-03-27T17:36:14.165Z,4.82
2023-03-27T17:39:16.737Z,5.00
2023-03-27T17:42:19.523Z,6.60
2023-03-27T17:45:23.791Z,4.18
2023-03-27T17:48:26.634Z,5.20
2023-03-27T17:51:29.072Z,5.50
2023-03-27T17:54:31.799Z,4.40
2023-03-27T17:57:37.911Z,4.78
2023-03-27T18:00:41.508Z,4.28
2023-03-27T18:03:45.675Z,4.70
2023-03-27T18:06:48.163Z,7.05
2023-03-27T18:09:51.856Z,5.53
2023-03-27T18:12:54.441Z,4.68
2023-03-27T18:15:58.390Z,5.75
2023-03-27T18:19:01.289Z,4.83
2023-03-27T18:22:04.873Z,4.55
2023-03-27T18:25:11.643Z,5.85
2023-03-27T18:28:14.748Z,4.62
2023-03-27T18:31:17.835Z,4.22
2023-03-27T18:34:21.201Z,5.63
2023-03-27T18:37:23.541Z,4.55
2023-03-27T18:40:26.380Z,5.82
2023-03-27T18:43:29.021Z,5.28
2023-03-27T18:46:32.177Z,4.55
2023-03-27T18:49:34.579Z,5.00
2023-03-27T18:52:37.481Z,4.32
2023-03-27T18:55:39.847Z,4.78
2023-03-27T18:58:42.936Z,7.62
2023-03-27T19:01:45.366Z,4.47
2023-03-27T19:04:48.174Z,8.30
2023-03-27T19:07:51.151Z,3.92
2023-03-27T19:10:56.004Z,5.28
2023-03-27T19:14:00.214Z,4.90
2023-03-27T19:17:05.472Z,5.12
2023-03-27T19:20:16.319Z,4.97
2023-03-27T19:23:19.182Z,4.50
2023-03-27T19:26:22.131Z,4.82
2023-03-27T19:29:24.862Z,3.95
2023-03-27T19:32:27.362Z,5.47
2023-03-27T19:35:30.461Z,4.60
2023-03-27T19:38:33.960Z,4.82
2023-03-27T19:41:37.058Z,4.72
2023-03-27T19:44:39.681Z,5.05
2023-03-27T19:47:43.630Z,4.78
2023-03-27T19:50:46.278Z,4.53
2023-03-27T19:53:49.842Z,5.72
2023-03-27T19:56:55.203Z,4.53
2023-03-27T19:59:57.970Z,3.42
2023-03-27T20:03:01.807Z,4.35
2023-03-27T20:06:13.385Z,4.30
2023-03-27T20:09:17.573Z,5.55
2023-03-27T20:12:21.295Z,5.28
2023-03-27T20:15:23.790Z,4.22
2023-03-27T20:18:32.652Z,4.80
2023-03-27T20:21:39.144Z,4.50
2023-03-27T20:24:42.091Z,4.10
2023-03-27T20:27:44.637Z,4.47
2023-03-27T20:30:48.554Z,4.75
2023-03-27T20:33:53.194Z,5.32
2023-03-27T20:36:58.909Z,4.30
2023-03-27T20:40:07.165Z,3.83
2023-03-27T20:43:10.895Z,5.85
2023-03-27T20:46:14.363Z,4.43
2023-03-27T20:52:30.114Z,4.10
2023-03-27T20:55:37.565Z,4.03
2023-03-27T20:58:48.605Z,4.45
2023-03-27T21:01:51.321Z,4.05
2023-03-27T21:04:53.761Z,5.32
2023-03-27T21:07:56.650Z,4.27
2023-03-27T21:10:59.054Z,6.20
2023-03-27T21:14:02.413Z,4.70
2023-03-27T21:17:05.721Z,4.35
2023-03-27T21:20:10.362Z,5.97
2023-03-27T21:23:12.758Z,5.60
2023-03-27T21:26:15.614Z,5.00
2023-03-27T21:29:18.382Z,4.57
2023-03-27T21:32:21.176Z,4.57
2023-03-27T21:35:23.873Z,4.85
2023-03-27T21:38:27.631Z,4.30
2023-03-27T21:41:31.952Z,4.18
2023-03-27T21:44:34.706Z,4.57
2023-03-27T21:47:47.259Z,4.40
2023-03-27T21:50:50.461Z,4.10
2023-03-27T21:53:53.352Z,3.70
2023-03-27T21:56:56.317Z,5.05
2023-03-27T21:59:58.708Z,3.62
2023-03-27T22:03:01.623Z,4.05
2023-03-27T22:06:12.404Z,4.62
2023-03-27T22:09:17.046Z,5.20
2023-03-27T22:12:20.529Z,6.72
2023-03-27T22:15:25.409Z,4.20
2023-03-27T22:18:28.172Z,4.60
2023-03-27T22:21:31.237Z,4.22
2023-03-27T22:24:34.369Z,3.93
2023-03-27T22:27:37.000Z,4.12
2023-03-27T22:30:41.752Z,3.90
2023-03-27T22:33:44.748Z,6.20
2023-03-27T22:36:47.607Z,4.87
2023-03-27T22:39:49.998Z,3.97
2023-03-27T22:42:52.671Z,4.43
2023-03-27T22:45:55.358Z,3.85
2023-03-27T22:48:58.661Z,3.95
2023-03-27T22:52:02.024Z,4.10
2023-03-27T22:55:05.395Z,3.70
2023-03-27T22:58:07.797Z,3.65
2023-03-27T23:01:11.308Z,6.43
2023-03-27T23:04:13.664Z,5.18
2023-03-27T23:07:16.368Z,4.40
2023-03-27T23:10:18.981Z,4.50
2023-03-27T23:13:23.248Z,4.75
2023-03-27T23:16:25.778Z,4.03
2023-03-27T23:19:28.658Z,3.95
2023-03-27T23:22:31.233Z,4.65
2023-03-27T23:25:34.200Z,5.13
2023-03-27T23:28:39.173Z,3.83
2023-03-27T23:31:41.889Z,5.00
2023-03-27T23:34:44.406Z,4.20
2023-03-27T23:37:47.788Z,4.03
2023-03-27T23:40:57.001Z,4.10
2023-03-27T23:43:59.757Z,5.03
2023-03-27T23:47:02.318Z,5.50
2023-03-27T23:50:05.620Z,4.93
2023-03-27T23:53:08.043Z,4.35
2023-03-27T23:56:11.546Z,4.50
2023-03-27T23:59:14.465Z,5.40
